createdAt,value
2023-02-28T00:01:58.658Z,98979.41
2023-02-28T00:04:27.421Z,98986.56
2023-02-28T00:06:56.383Z,98997.44
2023-02-28T00:09:25.288Z,98994.16
2023-02-28T00:11:54.944Z,99005.19
2023-02-28T00:14:23.676Z,99032.00
2023-02-28T00:16:52.857Z,99036.06
2023-02-28T00:19:21.683Z,99022.47
2023-02-28T00:21:50.616Z,99002.81
2023-02-28T00:24:19.590Z,99008.59
2023-02-28T00:26:48.626Z,99022.31
2023-02-28T00:29:17.386Z,99025.16
2023-02-28T00:31:46.594Z,99034.78
2023-02-28T00:34:15.402Z,99043.06
2023-02-28T00:36:47.326Z,99043.31
2023-02-28T00:39:16.589Z,99041.25
2023-02-28T00:41:46.137Z,99029.84
2023-02-28T00:44:16.163Z,99039.53
2023-02-28T00:46:44.932Z,99064.06
2023-02-28T00:49:14.019Z,99089.56
2023-02-28T00:51:44.667Z,99126.75
2023-02-28T00:54:13.604Z,99118.00
2023-02-28T00:56:42.479Z,99107.59
2023-02-28T00:59:13.093Z,99119.69
2023-02-28T01:01:46.403Z,99140.63
2023-02-28T01:04:18.214Z,99155.13
2023-02-28T01:06:49.825Z,99171.16
2023-02-28T01:09:20.086Z,99187.06
2023-02-28T01:11:50.110Z,99195.09
2023-02-28T01:14:21.605Z,99200.56
2023-02-28T01:16:51.846Z,99194.13
2023-02-28T01:19:22.476Z,99201.47
2023-02-28T01:21:53.282Z,99204.88
2023-02-28T01:24:23.446Z,99234.56
2023-02-28T01:26:53.569Z,99229.25
2023-02-28T01:29:24.511Z,99235.63
2023-02-28T01:31:55.884Z,99229.75
2023-02-28T01:34:25.595Z,99233.31
2023-02-28T01:36:55.214Z,99230.81
2023-02-28T01:39:25.364Z,99234.28
2023-02-28T01:41:55.609Z,99257.72
2023-02-28T01:45:02.682Z,99256.34
2023-02-28T01:47:41.956Z,99278.31
2023-02-28T01:50:17.641Z,99281.00
2023-02-28T01:52:49.664Z,99299.41
2023-02-28T01:55:23.014Z,99302.91
2023-02-28T01:57:56.815Z,99294.97
2023-02-28T02:00:32.096Z,99281.22
2023-02-28T02:03:16.936Z,99276.84
2023-02-28T02:05:49.655Z,99273.72
2023-02-28T02:08:25.506Z,99263.06
2023-02-28T02:11:04.664Z,99254.31
2023-02-28T02:14:22.513Z,99248.19
2023-02-28T02:17:01.399Z,99267.19
2023-02-28T02:20:18.900Z,99263.81
2023-02-28T02:23:14.616Z,99250.84
2023-02-28T02:25:55.675Z,99250.09
2023-02-28T02:28:38.464Z,99266.56
2023-02-28T02:31:29.633Z,99263.59
2023-02-28T02:34:17.988Z,99268.56
2023-02-28T02:37:11.402Z,99280.06
2023-02-28T02:39:56.817Z,99287.59
2023-02-28T02:42:47.285Z,99300.69
2023-02-28T02:45:27.805Z,99304.53
2023-02-28T02:48:02.421Z,99302.63
2023-02-28T02:50:39.619Z,99298.91
2023-02-28T02:53:11.812Z,99305.13
2023-02-28T02:55:46.390Z,99316.91
2023-02-28T02:58:24.854Z,99335.03
2023-02-28T03:01:00.820Z,99345.72
2023-02-28T03:03:32.301Z,99362.91
2023-02-28T03:06:03.811Z,99358.13
2023-02-28T03:08:39.115Z,99365.16
2023-02-28T03:11:16.061Z,99352.28
2023-02-28T03:14:02.171Z,99358.78
2023-02-28T03:16:59.071Z,99358.66
2023-02-28T03:19:44.301Z,99373.31
2023-02-28T03:22:38.768Z,99368.03
2023-02-28T03:25:40.449Z,99364.50
2023-02-28T03:28:41.714Z,99370.38
2023-02-28T03:31:48.525Z,99384.09
2023-02-28T03:34:41.391Z,99392.53
2023-02-28T03:37:18.005Z,99392.47
2023-02-28T03:39:54.425Z,99396.69
2023-02-28T03:42:28.591Z,99393.78
2023-02-28T03:45:05.170Z,99404.88
2023-02-28T03:47:48.142Z,99398.00
2023-02-28T03:50:37.730Z,99402.75
2023-02-28T03:53:16.698Z,99389.47
2023-02-28T03:55:54.909Z,99399.81
2023-02-28T03:58:44.903Z,99396.94
2023-02-28T04:01:26.651Z,99388.56
2023-02-28T04:03:56.702Z,99392.91
2023-02-28T04:06:27.149Z,99385.16
2023-02-28T04:08:56.982Z,99377.09
2023-02-28T04:11:37.414Z,99370.63
2023-02-28T04:14:08.449Z,99378.06
2023-02-28T04:16:41.944Z,99376.31
2023-02-28T04:19:14.658Z,99384.41
2023-02-28T04:21:55.676Z,99375.56
2023-02-28T04:24:30.330Z,99389.44
2023-02-28T04:27:00.879Z,99383.63
2023-02-28T04:29:33.743Z,99383.53
2023-02-28T04:32:04.736Z,99387.88
2023-02-28T04:34:34.859Z,99383.53
2023-02-28T04:37:13.986Z,99382.22
2023-02-28T04:39:44.136Z,99384.88
2023-02-28T04:42:14.516Z,99391.66
2023-02-28T04:44:43.764Z,99388.34
2023-02-28T04:47:12.482Z,99395.88
2023-02-28T04:49:43.317Z,99396.97
2023-02-28T04:52:12.560Z,99404.16
2023-02-28T04:54:41.761Z,99401.19
2023-02-28T04:57:10.747Z,99404.41
2023-02-28T04:59:39.593Z,99407.31
2023-02-28T05:02:08.792Z,99398.56
2023-02-28T05:04:38.169Z,99395.53
2023-02-28T05:07:07.220Z,99402.22
2023-02-28T05:09:36.586Z,99408.63
2023-02-28T05:12:05.602Z,99405.84
2023-02-28T05:14:34.579Z,99406.09
2023-02-28T05:17:03.489Z,99404.38
2023-02-28T05:19:32.344Z,99410.47
2023-02-28T05:22:01.526Z,99415.34
2023-02-28T05:24:30.473Z,99411.44
2023-02-28T05:26:59.958Z,99420.28
2023-02-28T05:29:28.655Z,99414.22
2023-02-28T05:31:57.683Z,99417.13
2023-02-28T05:34:26.564Z,99414.91
2023-02-28T05:36:55.554Z,99414.72
2023-02-28T05:39:24.547Z,99425.88
2023-02-28T05:41:53.552Z,99413.19
2023-02-28T05:44:22.384Z,99420.78
2023-02-28T05:46:51.345Z,99412.50
2023-02-28T05:49:20.350Z,99418.91
2023-02-28T05:51:49.351Z,99424.97
2023-02-28T05:54:18.381Z,99427.88
2023-02-28T05:56:47.773Z,99429.34
2023-02-28T05:59:16.550Z,99425.34
2023-02-28T06:01:50.124Z,99424.66
2023-02-28T06:04:31.455Z,99419.63
2023-02-28T06:07:01.265Z,99413.06
2023-02-28T06:09:30.372Z,99406.22
2023-02-28T06:12:05.639Z,99405.94
2023-02-28T06:14:36.133Z,99395.44
2023-02-28T06:17:06.154Z,99402.19
2023-02-28T06:19:35.659Z,99401.41
2023-02-28T06:22:04.456Z,99399.75
2023-02-28T06:24:33.595Z,99394.34
2023-02-28T06:27:09.967Z,99392.59
2023-02-28T06:29:41.806Z,99383.25
2023-02-28T06:32:11.367Z,99371.09
2023-02-28T06:34:40.254Z,99369.38
2023-02-28T06:37:09.319Z,99371.25
2023-02-28T06:39:38.353Z,99372.38
2023-02-28T06:42:07.575Z,99364.22
2023-02-28T06:44:39.874Z,99361.75
2023-02-28T06:47:09.041Z,99369.66
2023-02-28T06:49:38.756Z,99372.59
2023-02-28T06:52:08.089Z,99379.41
2023-02-28T06:54:38.472Z,99365.53
2023-02-28T06:57:07.546Z,99375.38
2023-02-28T06:59:37.220Z,99383.13
2023-02-28T07:02:08.393Z,99386.44
2023-02-28T07:04:37.433Z,99377.63
2023-02-28T07:07:06.230Z,99376.66
2023-02-28T07:09:35.269Z,99376.97
2023-02-28T07:12:04.300Z,99380.59
2023-02-28T07:14:33.257Z,99376.00
2023-02-28T07:17:02.063Z,99367.66
2023-02-28T07:19:32.357Z,99366.50
2023-02-28T07:22:01.628Z,99366.31
2023-02-28T07:24:31.294Z,99367.09
2023-02-28T07:27:01.315Z,99369.94
2023-02-28T07:29:30.183Z,99364.94
2023-02-28T07:32:00.204Z,99370.06
2023-02-28T07:34:29.781Z,99374.38
2023-02-28T07:36:59.001Z,99359.59
2023-02-28T07:39:27.747Z,99368.25
2023-02-28T07:41:56.784Z,99360.19
2023-02-28T07:44:28.983Z,99358.41
2023-02-28T07:46:58.252Z,99357.28
2023-02-28T07:49:27.110Z,99349.88
2023-02-28T07:51:56.310Z,99337.69
2023-02-28T07:54:25.253Z,99330.91
2023-02-28T07:56:54.303Z,99335.13
2023-02-28T07:59:23.127Z,99332.56
2023-02-28T08:01:52.814Z,99327.44
2023-02-28T08:04:21.823Z,99319.91
2023-02-28T08:06:53.945Z,99321.19
2023-02-28T08:09:23.099Z,99308.66
2023-02-28T08:11:51.910Z,99303.13
2023-02-28T08:14:20.932Z,99297.56
2023-02-28T08:16:49.803Z,99292.44
2023-02-28T08:19:19.669Z,99279.19
2023-02-28T08:22:02.514Z,99273.31
2023-02-28T08:24:31.644Z,99263.78
2023-02-28T08:27:00.479Z,99250.50
2023-02-28T08:29:29.673Z,99246.31
2023-02-28T08:31:58.975Z,99228.59
2023-02-28T08:34:27.964Z,99220.75
2023-02-28T08:36:56.875Z,99211.06
2023-02-28T08:39:26.034Z,99212.34
2023-02-28T08:42:06.745Z,99208.84
2023-02-28T08:44:36.747Z,99207.66
2023-02-28T08:47:05.880Z,99191.72
2023-02-28T08:49:35.080Z,99195.38
2023-02-28T08:52:03.920Z,99187.47
2023-02-28T08:54:34.043Z,99181.13
2023-02-28T08:57:03.379Z,99171.50
2023-02-28T08:59:32.736Z,99162.38
2023-02-28T09:02:01.834Z,99164.09
2023-02-28T09:04:34.053Z,99157.41
2023-02-28T09:07:03.236Z,99157.41
2023-02-28T09:09:32.076Z,99142.38
2023-02-28T09:12:01.454Z,99155.56
2023-02-28T09:14:30.546Z,99154.38
2023-02-28T09:17:00.306Z,99154.69
2023-02-28T09:19:29.363Z,99154.09
2023-02-28T09:21:58.387Z,99149.28
2023-02-28T09:24:27.188Z,99138.22
2023-02-28T09:27:04.511Z,99147.19
2023-02-28T09:29:35.918Z,99135.78
2023-02-28T09:32:07.784Z,99136.25
2023-02-28T09:34:38.797Z,99132.84
2023-02-28T09:37:10.375Z,99121.50
2023-02-28T09:39:39.546Z,99124.91
2023-02-28T09:42:16.451Z,99121.38
2023-02-28T09:44:49.440Z,99112.84
2023-02-28T09:47:43.153Z,99118.56
2023-02-28T09:50:40.036Z,99120.69
2023-02-28T09:53:36.715Z,99114.91
2023-02-28T09:56:11.399Z,99113.22
2023-02-28T09:58:50.743Z,99099.16
2023-02-28T10:01:47.877Z,99101.28
2023-02-28T10:04:40.996Z,99089.78
2023-02-28T10:07:56.895Z,99086.97
2023-02-28T10:10:32.269Z,99075.91
2023-02-28T10:13:07.779Z,99084.44
2023-02-28T10:15:39.135Z,99082.34
2023-02-28T10:18:17.042Z,99081.34
2023-02-28T10:20:47.456Z,99070.88
2023-02-28T10:23:36.864Z,99070.75
2023-02-28T10:26:25.986Z,99064.16
2023-02-28T10:28:55.804Z,99058.97
2023-02-28T10:31:26.304Z,99056.06
2023-02-28T10:33:55.754Z,99050.09
2023-02-28T10:36:24.863Z,99045.84
2023-02-28T10:38:56.782Z,99046.56
2023-02-28T10:41:36.552Z,99046.31
2023-02-28T10:44:31.539Z,99049.78
2023-02-28T10:47:02.095Z,99052.81
2023-02-28T10:49:31.732Z,99038.63
2023-02-28T10:52:02.845Z,99048.38
2023-02-28T10:54:39.665Z,99048.09
2023-02-28T10:57:22.540Z,99041.19
2023-02-28T11:00:07.656Z,99046.81
2023-02-28T11:02:39.585Z,99039.28
2023-02-28T11:05:32.119Z,99042.88
2023-02-28T11:08:21.466Z,99047.63
2023-02-28T11:10:58.001Z,99041.31
2023-02-28T11:13:41.849Z,99042.66
2023-02-28T11:16:14.552Z,99038.50
2023-02-28T11:18:47.105Z,99047.88
2023-02-28T11:21:27.289Z,99039.50
2023-02-28T11:24:07.474Z,99037.56
2023-02-28T11:26:46.366Z,99039.06
2023-02-28T11:29:22.962Z,99036.31
2023-02-28T11:32:18.226Z,99041.28
2023-02-28T11:34:49.376Z,99044.72
2023-02-28T11:37:21.714Z,99040.88
2023-02-28T11:39:50.857Z,99039.25
2023-02-28T11:42:39.392Z,99037.47
2023-02-28T11:45:19.939Z,99028.59
2023-02-28T11:48:04.676Z,99027.34
2023-02-28T11:51:06.139Z,99031.56
2023-02-28T11:53:46.811Z,99026.25
2023-02-28T11:56:29.019Z,99029.41
2023-02-28T11:59:39.304Z,99023.47
2023-02-28T12:02:30.279Z,99021.00
2023-02-28T12:05:33.045Z,99014.34
2023-02-28T12:08:15.096Z,99017.00
2023-02-28T12:11:28.913Z,99010.53
2023-02-28T12:14:11.945Z,99002.69
2023-02-28T12:17:06.564Z,98992.44
2023-02-28T12:19:45.651Z,98997.78
2023-02-28T12:22:28.252Z,99001.66
2023-02-28T12:25:09.269Z,99013.91
2023-02-28T12:27:44.895Z,99025.47
2023-02-28T12:30:43.600Z,99040.06
2023-02-28T12:33:16.903Z,99039.56
2023-02-28T12:35:53.262Z,99051.84
2023-02-28T12:38:26.815Z,99058.31
2023-02-28T12:41:03.656Z,99062.03
2023-02-28T12:43:40.634Z,99052.34
2023-02-28T12:46:27.870Z,99059.63
2023-02-28T12:49:01.197Z,99057.28
2023-02-28T12:51:31.794Z,99057.81
2023-02-28T12:54:28.753Z,99055.22
2023-02-28T12:57:20.704Z,99050.03
2023-02-28T13:00:00.525Z,99053.81
2023-02-28T13:03:01.979Z,99051.50
2023-02-28T13:06:06.804Z,99045.84
2023-02-28T13:08:50.686Z,99046.91
2023-02-28T13:11:44.712Z,99050.28
2023-02-28T13:14:37.803Z,99061.34
2023-02-28T13:17:14.605Z,99056.03
2023-02-28T13:19:43.816Z,99058.19
2023-02-28T13:22:42.098Z,99050.72
2023-02-28T13:25:44.302Z,99060.28
2023-02-28T13:28:16.406Z,99062.59
2023-02-28T13:30:57.513Z,99060.38
2023-02-28T13:33:59.901Z,99073.44
2023-02-28T13:36:32.109Z,99082.88
2023-02-28T13:39:04.008Z,99082.69
2023-02-28T13:41:36.314Z,99079.97
2023-02-28T13:44:20.208Z,99079.34
2023-02-28T13:46:52.778Z,99069.84
2023-02-28T13:49:27.405Z,99075.19
2023-02-28T13:52:05.104Z,99074.84
2023-02-28T13:55:04.691Z,99076.34
2023-02-28T13:58:03.890Z,99079.81
2023-02-28T14:01:18.997Z,99077.44
2023-02-28T14:03:59.972Z,99071.44
2023-02-28T14:06:39.206Z,99070.69
2023-02-28T14:09:19.893Z,99078.69
2023-02-28T14:11:49.247Z,99079.34
2023-02-28T14:14:39.506Z,99088.63
2023-02-28T14:17:16.188Z,99088.00
2023-02-28T14:19:51.597Z,99091.47
2023-02-28T14:22:39.109Z,99090.41
2023-02-28T14:25:46.155Z,99101.81
2023-02-28T14:28:21.548Z,99107.38
2023-02-28T14:30:51.944Z,99105.34
2023-02-28T14:33:37.322Z,99113.41
2023-02-28T14:36:18.539Z,99124.00
2023-02-28T14:39:08.861Z,99124.03
2023-02-28T14:41:41.486Z,99128.03
2023-02-28T14:44:16.340Z,99129.78
2023-02-28T14:46:47.513Z,99130.03
2023-02-28T14:49:27.998Z,99135.31
2023-02-28T14:52:22.891Z,99139.44
2023-02-28T14:55:00.718Z,99142.22
2023-02-28T14:57:35.869Z,99143.91
2023-02-28T15:00:24.992Z,99146.25
2023-02-28T15:02:55.186Z,99147.06
2023-02-28T15:05:35.760Z,99152.06
2023-02-28T15:08:07.731Z,99159.09
2023-02-28T15:10:37.169Z,99172.28
2023-02-28T15:13:14.466Z,99175.28
2023-02-28T15:16:03.332Z,99180.69
2023-02-28T15:18:59.245Z,99188.47
2023-02-28T15:21:40.736Z,99185.81
2023-02-28T15:24:18.369Z,99196.66
2023-02-28T15:26:53.150Z,99183.25
2023-02-28T15:29:26.000Z,99188.44
2023-02-28T15:32:03.341Z,99186.72
2023-02-28T15:34:44.300Z,99185.25
2023-02-28T15:37:39.545Z,99191.19
2023-02-28T15:40:39.006Z,99199.72
2023-02-28T15:43:41.949Z,99209.59
2023-02-28T15:46:14.322Z,99209.19
2023-02-28T15:48:53.386Z,99211.72
2023-02-28T15:51:32.066Z,99212.69
2023-02-28T15:54:17.306Z,99223.09
2023-02-28T15:56:49.614Z,99233.88
2023-02-28T15:59:28.654Z,99243.44
2023-02-28T16:02:12.604Z,99252.91
2023-02-28T16:05:08.885Z,99261.63
2023-02-28T16:07:45.771Z,99276.47
2023-02-28T16:10:18.454Z,99291.56
2023-02-28T16:12:47.731Z,99296.91
2023-02-28T16:15:31.112Z,99295.66
2023-02-28T16:18:00.506Z,99297.84
2023-02-28T16:20:32.756Z,99301.97
2023-02-28T16:23:04.795Z,99304.78
2023-02-28T16:25:46.146Z,99312.94
2023-02-28T16:28:33.208Z,99334.84
2023-02-28T16:31:07.234Z,99350.28
2023-02-28T16:33:36.632Z,99370.25
2023-02-28T16:36:05.904Z,99373.81
2023-02-28T16:38:36.015Z,99365.91
2023-02-28T16:41:05.058Z,99373.66
2023-02-28T16:43:34.246Z,99383.69
2023-02-28T16:46:05.596Z,99384.66
2023-02-28T16:48:34.651Z,99378.28
2023-02-28T16:51:06.236Z,99371.38
2023-02-28T16:53:35.316Z,99369.53
2023-02-28T16:56:04.220Z,99364.41
2023-02-28T16:58:33.330Z,99351.56
2023-02-28T17:01:02.271Z,99343.56
2023-02-28T17:03:33.541Z,99343.44
2023-02-28T17:06:03.526Z,99332.38
2023-02-28T17:08:33.997Z,99329.78
2023-02-28T17:11:04.603Z,99321.47
2023-02-28T17:13:36.358Z,99317.97
2023-02-28T17:16:05.808Z,99307.31
2023-02-28T17:18:36.554Z,99305.38
2023-02-28T17:21:05.820Z,99289.66
2023-02-28T17:23:34.608Z,99290.16
2023-02-28T17:26:03.520Z,99280.78
2023-02-28T17:28:32.328Z,99282.34
2023-02-28T17:31:01.546Z,99279.91
2023-02-28T17:33:30.488Z,99269.50
2023-02-28T17:35:59.786Z,99270.53
2023-02-28T17:38:28.644Z,99258.16
2023-02-28T17:40:59.242Z,99256.97
2023-02-28T17:43:29.297Z,99242.22
2023-02-28T17:45:58.494Z,99243.06
2023-02-28T17:48:27.973Z,99241.44
2023-02-28T17:50:56.846Z,99248.91
2023-02-28T17:53:26.053Z,99283.47
2023-02-28T17:55:54.863Z,99334.66
2023-02-28T17:58:23.788Z,99371.97
2023-02-28T18:00:55.748Z,99408.47
2023-02-28T18:03:26.201Z,99420.53
2023-02-28T18:05:55.957Z,99419.56
2023-02-28T18:08:26.175Z,99428.72
2023-02-28T18:10:55.202Z,99436.31
2023-02-28T18:13:23.932Z,99415.66
2023-02-28T18:15:53.327Z,99406.13
2023-02-28T18:18:22.331Z,99390.84
2023-02-28T18:20:51.816Z,99374.63
2023-02-28T18:23:22.418Z,99375.56
2023-02-28T18:25:51.480Z,99412.97
2023-02-28T18:28:20.194Z,99438.25
2023-02-28T18:30:49.100Z,99427.47
2023-02-28T18:33:18.216Z,99413.47
2023-02-28T18:35:47.183Z,99388.44
2023-02-28T18:38:22.023Z,99357.94
2023-02-28T18:41:02.955Z,99338.09
2023-02-28T18:43:33.844Z,99327.41
2023-02-28T18:46:08.020Z,99321.53
2023-02-28T18:48:37.925Z,99321.63
2023-02-28T18:51:13.769Z,99333.19
2023-02-28T18:53:44.389Z,99332.09
2023-02-28T18:56:16.393Z,99325.75
2023-02-28T18:58:46.003Z,99315.78
2023-02-28T19:01:27.869Z,99315.72
2023-02-28T19:03:57.701Z,99312.88
2023-02-28T19:06:26.458Z,99313.00
2023-02-28T19:08:56.906Z,99299.06
2023-02-28T19:11:27.233Z,99307.56
2023-02-28T19:13:57.202Z,99304.91
2023-02-28T19:16:28.777Z,99302.19
2023-02-28T19:18:58.595Z,99306.66
2023-02-28T19:21:27.998Z,99307.56
2023-02-28T19:23:56.955Z,99294.63
2023-02-28T19:26:28.085Z,99299.78
2023-02-28T19:28:57.459Z,99299.06
2023-02-28T19:31:46.963Z,99296.25
2023-02-28T19:34:16.160Z,99286.09
2023-02-28T19:36:44.915Z,99291.06
2023-02-28T19:39:13.820Z,99294.84
2023-02-28T19:41:42.630Z,99287.09
2023-02-28T19:44:11.712Z,99291.09
2023-02-28T19:46:40.786Z,99287.75
2023-02-28T19:49:10.538Z,99289.19
2023-02-28T19:51:39.752Z,99282.84
2023-02-28T19:54:08.683Z,99278.50
2023-02-28T19:56:37.655Z,99279.06
2023-02-28T19:59:13.038Z,99274.03
2023-02-28T20:01:50.841Z,99271.50
2023-02-28T20:04:19.504Z,99279.94
2023-02-28T20:06:48.517Z,99281.78
2023-02-28T20:09:17.691Z,99276.75
2023-02-28T20:11:47.854Z,99270.34
2023-02-28T20:14:18.708Z,99260.06
2023-02-28T20:16:48.106Z,99268.59
2023-02-28T20:19:16.842Z,99258.63
2023-02-28T20:21:46.387Z,99270.53
2023-02-28T20:24:15.131Z,99267.84
2023-02-28T20:26:44.199Z,99268.53
2023-02-28T20:29:12.978Z,99265.13
2023-02-28T20:31:42.089Z,99272.81
2023-02-28T20:34:10.893Z,99267.78
2023-02-28T20:36:40.035Z,99273.63
2023-02-28T20:39:08.934Z,99275.34
2023-02-28T20:41:38.002Z,99272.06
2023-02-28T20:44:07.497Z,99276.16
2023-02-28T20:46:36.636Z,99273.41
2023-02-28T20:49:05.573Z,99277.72
2023-02-28T20:51:34.850Z,99275.22
2023-02-28T20:54:05.414Z,99275.13
2023-02-28T20:56:35.196Z,99273.06
2023-02-28T20:59:04.409Z,99293.06
2023-02-28T21:01:33.434Z,99286.88
2023-02-28T21:04:07.175Z,99285.34
2023-02-28T21:06:41.170Z,99291.34
2023-02-28T21:09:11.583Z,99282.84
2023-02-28T21:11:41.058Z,99289.59
2023-02-28T21:14:14.793Z,99278.88
2023-02-28T21:16:45.338Z,99284.53
2023-02-28T21:19:14.498Z,99282.69
2023-02-28T21:21:45.379Z,99284.53
2023-02-28T21:24:17.317Z,99284.22
2023-02-28T21:26:47.993Z,99287.56
2023-02-28T21:29:17.343Z,99282.59
2023-02-28T21:31:46.203Z,99288.53
2023-02-28T21:34:15.259Z,99297.34
2023-02-28T21:36:48.574Z,99295.56
2023-02-28T21:39:20.767Z,99307.59
2023-02-28T21:41:49.873Z,99310.28
2023-02-28T21:44:23.522Z,99309.50
2023-02-28T21:46:57.633Z,99302.50
2023-02-28T21:49:26.706Z,99308.84
2023-02-28T21:51:55.430Z,99307.81
2023-02-28T21:54:24.643Z,99307.78
2023-02-28T21:56:53.544Z,99299.03
2023-02-28T21:59:22.754Z,99293.06
2023-02-28T22:01:52.595Z,99302.44
2023-02-28T22:04:24.572Z,99306.94
2023-02-28T22:06:58.171Z,99314.63
2023-02-28T22:09:27.453Z,99318.47
2023-02-28T22:11:57.136Z,99331.41
2023-02-28T22:14:26.281Z,99329.72
2023-02-28T22:16:57.645Z,99320.22
2023-02-28T22:19:28.425Z,99313.47
2023-02-28T22:21:58.331Z,99309.16
2023-02-28T22:24:27.138Z,99298.69
2023-02-28T22:26:56.288Z,99299.63
2023-02-28T22:29:25.286Z,99291.53
2023-02-28T22:31:54.276Z,99283.94
2023-02-28T22:34:22.910Z,99279.47
2023-02-28T22:36:51.733Z,99284.59
2023-02-28T22:39:20.291Z,99291.34
2023-02-28T22:41:49.145Z,99303.44
2023-02-28T22:44:17.740Z,99300.13
2023-02-28T22:46:46.676Z,99300.47
2023-02-28T22:49:15.329Z,99294.16
2023-02-28T22:51:44.296Z,99287.09
2023-02-28T22:54:12.990Z,99285.38
2023-02-28T22:56:41.959Z,99284.88
2023-02-28T22:59:15.471Z,99280.69
2023-02-28T23:01:45.528Z,99271.03
2023-02-28T23:04:14.254Z,99273.72
2023-02-28T23:06:45.249Z,99272.13
2023-02-28T23:09:19.505Z,99272.75
2023-02-28T23:11:50.849Z,99268.44
2023-02-28T23:14:21.266Z,99260.81
2023-02-28T23:16:57.251Z,99253.66
2023-02-28T23:19:30.403Z,99253.31
2023-02-28T23:22:01.093Z,99263.78
2023-02-28T23:24:33.030Z,99272.16
2023-02-28T23:27:05.761Z,99277.25
2023-02-28T23:29:36.130Z,99280.84
2023-02-28T23:32:05.225Z,99280.91
2023-02-28T23:34:34.218Z,99282.63
2023-02-28T23:37:03.594Z,99289.53
2023-02-28T23:39:32.972Z,99286.91
2023-02-28T23:42:02.684Z,99298.25
2023-02-28T23:44:31.653Z,99299.81
2023-02-28T23:47:00.533Z,99311.94
2023-02-28T23:49:29.150Z,99314.53
2023-02-28T23:51:58.502Z,99323.38
2023-02-28T23:54:27.104Z,99325.25
2023-02-28T23:56:55.902Z,99320.00
2023-02-28T23:59:24.469Z,99323.38
